sensor_id;sensor_type;location;lat;lon;timestamp;P1;durP1;ratioP1;P2;durP2;ratioP2
68593;SDS011;55563;52.416;13.548;2023-03-04T00:00:24;12.63;;;6.82;;
68593;SDS011;55563;52.416;13.548;2023-03-04T00:02:25;12.45;;;6.47;;
68593;SDS011;55563;52.416;13.548;2023-03-04T00:04:26;11.32;;;5.55;;
68593;SDS011;55563;52.416;13.548;2023-03-04T00:06:26;11.68;;;5.40;;
68593;SDS011;55563;52.416;13.548;2023-03-04T00:08:27;13.45;;;6.47;;
68593;SDS011;55563;52.416;13.548;2023-03-04T00:10:28;15.05;;;6.57;;
68593;SDS011;55563;52.416;13.548;2023-03-04T00:12:28;14.20;;;6.72;;
68593;SDS011;55563;52.416;13.548;2023-03-04T00:14:29;12.15;;;6.07;;
68593;SDS011;55563;52.416;13.548;2023-03-04T00:16:30;11.15;;;6.60;;
68593;SDS011;55563;52.416;13.548;2023-03-04T00:18:31;9.70;;;5.18;;
68593;SDS011;55563;52.416;13.548;2023-03-04T00:20:31;11.57;;;5.70;;
68593;SDS011;55563;52.416;13.548;2023-03-04T00:22:32;14.00;;;7.03;;
68593;SDS011;55563;52.416;13.548;2023-03-04T00:24:33;14.52;;;6.68;;
68593;SDS011;55563;52.416;13.548;2023-03-04T00:26:34;12.77;;;6.53;;
68593;SDS011;55563;52.416;13.548;2023-03-04T00:28:35;13.68;;;6.97;;
68593;SDS011;55563;52.416;13.548;2023-03-04T00:30:36;12.73;;;6.25;;
68593;SDS011;55563;52.416;13.548;2023-03-04T00:32:36;13.02;;;6.88;;
68593;SDS011;55563;52.416;13.548;2023-03-04T00:34:37;11.05;;;5.72;;
68593;SDS011;55563;52.416;13.548;2023-03-04T00:36:39;13.13;;;6.00;;
68593;SDS011;55563;52.416;13.548;2023-03-04T00:38:43;9.23;;;4.45;;
68593;SDS011;55563;52.416;13.548;2023-03-04T00:40:44;10.88;;;5.90;;
68593;SDS011;55563;52.416;13.548;2023-03-04T00:42:45;12.52;;;6.35;;
68593;SDS011;55563;52.416;13.548;2023-03-04T00:44:45;13.60;;;6.85;;
68593;SDS011;55563;52.416;13.548;2023-03-04T00:46:46;9.88;;;4.97;;
68593;SDS011;55563;52.416;13.548;2023-03-04T00:48:47;13.63;;;7.00;;
68593;SDS011;55563;52.416;13.548;2023-03-04T00:50:48;12.77;;;6.82;;
68593;SDS011;55563;52.416;13.548;2023-03-04T00:52:50;13.15;;;7.25;;
68593;SDS011;55563;52.416;13.548;2023-03-04T00:54:51;14.48;;;6.90;;
68593;SDS011;55563;52.416;13.548;2023-03-04T00:56:52;13.27;;;5.82;;
68593;SDS011;55563;52.416;13.548;2023-03-04T00:58:53;10.80;;;5.88;;
68593;SDS011;55563;52.416;13.548;2023-03-04T01:00:53;16.02;;;6.95;;
68593;SDS011;55563;52.416;13.548;2023-03-04T01:02:54;14.60;;;7.25;;
68593;SDS011;55563;52.416;13.548;2023-03-04T01:04:55;12.82;;;6.45;;
68593;SDS011;55563;52.416;13.548;2023-03-04T01:06:55;10.70;;;5.40;;
68593;SDS011;55563;52.416;13.548;2023-03-04T01:08:56;10.40;;;4.57;;
68593;SDS011;55563;52.416;13.548;2023-03-04T01:10:57;10.80;;;5.20;;
68593;SDS011;55563;52.416;13.548;2023-03-04T01:12:58;12.07;;;5.55;;
68593;SDS011;55563;52.416;13.548;2023-03-04T01:15:00;10.00;;;5.05;;
68593;SDS011;55563;52.416;13.548;2023-03-04T01:17:01;11.98;;;6.28;;
68593;SDS011;55563;52.416;13.548;2023-03-04T01:19:02;9.23;;;4.68;;
68593;SDS011;55563;52.416;13.548;2023-03-04T01:21:04;10.07;;;5.38;;
68593;SDS011;55563;52.416;13.548;2023-03-04T01:23:05;12.63;;;6.15;;
68593;SDS011;55563;52.416;13.548;2023-03-04T01:25:06;11.00;;;4.75;;
68593;SDS011;55563;52.416;13.548;2023-03-04T01:27:08;13.18;;;5.63;;
68593;SDS011;55563;52.416;13.548;2023-03-04T01:29:08;8.60;;;3.92;;
68593;SDS011;55563;52.416;13.548;2023-03-04T01:31:09;11.00;;;5.60;;
68593;SDS011;55563;52.416;13.548;2023-03-04T01:33:10;11.15;;;4.78;;
68593;SDS011;55563;52.416;13.548;2023-03-04T01:35:11;11.43;;;4.40;;
68593;SDS011;55563;52.416;13.548;2023-03-04T01:37:11;10.90;;;5.57;;
68593;SDS011;55563;52.416;13.548;2023-03-04T01:41:14;7.20;;;4.15;;
68593;SDS011;55563;52.416;13.548;2023-03-04T01:43:20;8.05;;;4.40;;
68593;SDS011;55563;52.416;13.548;2023-03-04T01:45:22;11.25;;;4.40;;
68593;SDS011;55563;52.416;13.548;2023-03-04T01:47:24;10.55;;;5.05;;
68593;SDS011;55563;52.416;13.548;2023-03-04T01:49:28;11.23;;;5.60;;
68593;SDS011;55563;52.416;13.548;2023-03-04T01:51:29;12.20;;;5.50;;
68593;SDS011;55563;52.416;13.548;2023-03-04T01:53:31;9.70;;;5.30;;
68593;SDS011;55563;52.416;13.548;2023-03-04T01:55:33;9.55;;;5.22;;
68593;SDS011;55563;52.416;13.548;2023-03-04T01:57:34;11.70;;;4.88;;
68593;SDS011;55563;52.416;13.548;2023-03-04T01:59:35;10.07;;;4.07;;
68593;SDS011;55563;52.416;13.548;2023-03-04T02:01:36;10.20;;;4.18;;
68593;SDS011;55563;52.416;13.548;2023-03-04T02:03:38;9.18;;;4.63;;
68593;SDS011;55563;52.416;13.548;2023-03-04T02:05:40;11.40;;;5.13;;
68593;SDS011;55563;52.416;13.548;2023-03-04T02:07:43;9.70;;;4.57;;
68593;SDS011;55563;52.416;13.548;2023-03-04T02:09:44;13.55;;;5.00;;
68593;SDS011;55563;52.416;13.548;2023-03-04T02:11:47;6.18;;;3.58;;
68593;SDS011;55563;52.416;13.548;2023-03-04T02:13:49;11.20;;;4.40;;
68593;SDS011;55563;52.416;13.548;2023-03-04T02:15:51;11.40;;;4.25;;
68593;SDS011;55563;52.416;13.548;2023-03-04T02:17:52;10.13;;;4.55;;
68593;SDS011;55563;52.416;13.548;2023-03-04T02:20:04;10.32;;;4.30;;
68593;SDS011;55563;52.416;13.548;2023-03-04T02:22:12;12.75;;;4.45;;
68593;SDS011;55563;52.416;13.548;2023-03-04T02:26:24;9.23;;;4.68;;
68593;SDS011;55563;52.416;13.548;2023-03-04T02:28:27;8.32;;;3.65;;
68593;SDS011;55563;52.416;13.548;2023-03-04T02:30:28;10.30;;;4.57;;
68593;SDS011;55563;52.416;13.548;2023-03-04T02:32:29;7.07;;;3.75;;
68593;SDS011;55563;52.416;13.548;2023-03-04T02:34:30;7.72;;;3.20;;
68593;SDS011;55563;52.416;13.548;2023-03-04T02:36:34;6.82;;;2.80;;
68593;SDS011;55563;52.416;13.548;2023-03-04T02:38:36;8.00;;;4.18;;
68593;SDS011;55563;52.416;13.548;2023-03-04T02:40:38;10.07;;;3.75;;
68593;SDS011;55563;52.416;13.548;2023-03-04T02:42:42;9.35;;;4.20;;
68593;SDS011;55563;52.416;13.548;2023-03-04T02:44:45;5.18;;;2.85;;
68593;SDS011;55563;52.416;13.548;2023-03-04T02:46:49;7.97;;;3.75;;
68593;SDS011;55563;52.416;13.548;2023-03-04T02:48:51;8.32;;;3.17;;
68593;SDS011;55563;52.416;13.548;2023-03-04T02:50:52;4.63;;;2.47;;
68593;SDS011;55563;52.416;13.548;2023-03-04T02:52:53;10.52;;;4.13;;
68593;SDS011;55563;52.416;13.548;2023-03-04T02:54:54;11.40;;;4.20;;
68593;SDS011;55563;52.416;13.548;2023-03-04T02:56:58;8.70;;;3.45;;
68593;SDS011;55563;52.416;13.548;2023-03-04T02:59:03;9.00;;;3.38;;
68593;SDS011;55563;52.416;13.548;2023-03-04T03:01:05;9.48;;;3.30;;
68593;SDS011;55563;52.416;13.548;2023-03-04T03:03:06;9.18;;;3.97;;
68593;SDS011;55563;52.416;13.548;2023-03-04T03:05:09;6.40;;;3.53;;
68593;SDS011;55563;52.416;13.548;2023-03-04T03:07:11;11.20;;;3.92;;
68593;SDS011;55563;52.416;13.548;2023-03-04T03:09:12;8.70;;;3.00;;
68593;SDS011;55563;52.416;13.548;2023-03-04T03:11:13;7.57;;;3.63;;
68593;SDS011;55563;52.416;13.548;2023-03-04T03:13:14;8.25;;;3.58;;
68593;SDS011;55563;52.416;13.548;2023-03-04T03:15:15;7.68;;;3.72;;
68593;SDS011;55563;52.416;13.548;2023-03-04T03:17:16;9.30;;;3.88;;
68593;SDS011;55563;52.416;13.548;2023-03-04T03:19:17;9.45;;;3.05;;
68593;SDS011;55563;52.416;13.548;2023-03-04T03:21:18;10.13;;;4.15;;
68593;SDS011;55563;52.416;13.548;2023-03-04T03:23:19;8.43;;;3.75;;
68593;SDS011;55563;52.416;13.548;2023-03-04T03:25:20;7.97;;;3.70;;
68593;SDS011;55563;52.416;13.548;2023-03-04T03:27:21;8.20;;;3.83;;
68593;SDS011;55563;52.416;13.548;2023-03-04T03:29:23;10.38;;;3.85;;
68593;SDS011;55563;52.416;13.548;2023-03-04T03:31:24;11.40;;;4.40;;
68593;SDS011;55563;52.416;13.548;2023-03-04T03:33:24;8.73;;;3.78;;
68593;SDS011;55563;52.416;13.548;2023-03-04T03:35:25;8.55;;;3.50;;
68593;SDS011;55563;52.416;13.548;2023-03-04T03:37:26;10.27;;;3.83;;
68593;SDS011;55563;52.416;13.548;2023-03-04T03:39:27;6.97;;;3.28;;
68593;SDS011;55563;52.416;13.548;2023-03-04T03:41:27;4.07;;;2.72;;
68593;SDS011;55563;52.416;13.548;2023-03-04T03:43:28;8.52;;;3.67;;
68593;SDS011;55563;52.416;13.548;2023-03-04T03:45:29;7.30;;;3.10;;
68593;SDS011;55563;52.416;13.548;2023-03-04T03:47:30;9.48;;;3.78;;
68593;SDS011;55563;52.416;13.548;2023-03-04T03:49:30;5.97;;;3.00;;
68593;SDS011;55563;52.416;13.548;2023-03-04T03:51:31;8.00;;;3.83;;
68593;SDS011;55563;52.416;13.548;2023-03-04T03:53:32;10.77;;;4.07;;
68593;SDS011;55563;52.416;13.548;2023-03-04T03:55:32;8.52;;;2.92;;
68593;SDS011;55563;52.416;13.548;2023-03-04T03:57:33;7.78;;;2.83;;
68593;SDS011;55563;52.416;13.548;2023-03-04T03:59:34;7.90;;;3.65;;
68593;SDS011;55563;52.416;13.548;2023-03-04T04:01:35;8.82;;;3.20;;
68593;SDS011;55563;52.416;13.548;2023-03-04T04:03:36;6.32;;;2.85;;
68593;SDS011;55563;52.416;13.548;2023-03-04T04:05:37;5.60;;;3.65;;
68593;SDS011;55563;52.416;13.548;2023-03-04T04:07:38;9.68;;;3.60;;
68593;SDS011;55563;52.416;13.548;2023-03-04T04:09:38;6.57;;;3.40;;
68593;SDS011;55563;52.416;13.548;2023-03-04T04:11:39;5.78;;;3.00;;
68593;SDS011;55563;52.416;13.548;2023-03-04T04:13:40;7.38;;;3.60;;
68593;SDS011;55563;52.416;13.548;2023-03-04T04:15:40;10.23;;;3.65;;
68593;SDS011;55563;52.416;13.548;2023-03-04T04:17:41;9.05;;;3.72;;
68593;SDS011;55563;52.416;13.548;2023-03-04T04:19:42;6.93;;;3.22;;
68593;SDS011;55563;52.416;13.548;2023-03-04T04:21:43;7.25;;;3.15;;
68593;SDS011;55563;52.416;13.548;2023-03-04T04:23:44;6.25;;;3.20;;
68593;SDS011;55563;52.416;13.548;2023-03-04T04:25:45;9.05;;;3.55;;
68593;SDS011;55563;52.416;13.548;2023-03-04T04:27:46;4.85;;;2.78;;
68593;SDS011;55563;52.416;13.548;2023-03-04T04:29:46;8.63;;;3.00;;
68593;SDS011;55563;52.416;13.548;2023-03-04T04:31:47;6.18;;;2.78;;
68593;SDS011;55563;52.416;13.548;2023-03-04T04:33:48;7.95;;;2.85;;
68593;SDS011;55563;52.416;13.548;2023-03-04T04:35:48;7.50;;;3.03;;
68593;SDS011;55563;52.416;13.548;2023-03-04T04:37:49;7.75;;;3.28;;
68593;SDS011;55563;52.416;13.548;2023-03-04T04:39:50;6.32;;;3.00;;
68593;SDS011;55563;52.416;13.548;2023-03-04T04:41:51;7.22;;;2.97;;
68593;SDS011;55563;52.416;13.548;2023-03-04T04:43:51;8.80;;;3.05;;
68593;SDS011;55563;52.416;13.548;2023-03-04T04:45:52;5.43;;;2.58;;
68593;SDS011;55563;52.416;13.548;2023-03-04T04:47:53;6.85;;;3.17;;
68593;SDS011;55563;52.416;13.548;2023-03-04T04:49:56;7.72;;;2.83;;
68593;SDS011;55563;52.416;13.548;2023-03-04T04:51:57;8.68;;;2.20;;
68593;SDS011;55563;52.416;13.548;2023-03-04T04:53:58;6.95;;;2.28;;
68593;SDS011;55563;52.416;13.548;2023-03-04T04:58:00;5.72;;;2.78;;
68593;SDS011;55563;52.416;13.548;2023-03-04T05:00:00;8.23;;;3.00;;
68593;SDS011;55563;52.416;13.548;2023-03-04T05:02:01;5.03;;;2.53;;
68593;SDS011;55563;52.416;13.548;2023-03-04T05:04:02;6.20;;;2.47;;
68593;SDS011;55563;52.416;13.548;2023-03-04T05:06:04;4.80;;;2.47;;
68593;SDS011;55563;52.416;13.548;2023-03-04T05:08:07;6.18;;;2.95;;
68593;SDS011;55563;52.416;13.548;2023-03-04T05:10:08;9.32;;;3.22;;
68593;SDS011;55563;52.416;13.548;2023-03-04T05:12:09;5.45;;;2.83;;
68593;SDS011;55563;52.416;13.548;2023-03-04T05:14:10;8.63;;;3.08;;
68593;SDS011;55563;52.416;13.548;2023-03-04T05:16:10;6.78;;;2.40;;
68593;SDS011;55563;52.416;13.548;2023-03-04T05:18:12;5.28;;;2.47;;
68593;SDS011;55563;52.416;13.548;2023-03-04T05:20:13;6.45;;;2.75;;
68593;SDS011;55563;52.416;13.548;2023-03-04T05:22:14;4.15;;;2.17;;
68593;SDS011;55563;52.416;13.548;2023-03-04T05:24:14;5.78;;;2.50;;
68593;SDS011;55563;52.416;13.548;2023-03-04T05:26:16;5.65;;;2.40;;
68593;SDS011;55563;52.416;13.548;2023-03-04T05:28:17;4.57;;;2.35;;
68593;SDS011;55563;52.416;13.548;2023-03-04T05:30:18;4.85;;;2.40;;
68593;SDS011;55563;52.416;13.548;2023-03-04T05:32:19;4.35;;;2.30;;
68593;SDS011;55563;52.416;13.548;2023-03-04T05:34:19;5.20;;;2.38;;
68593;SDS011;55563;52.416;13.548;2023-03-04T05:36:20;3.22;;;1.63;;
68593;SDS011;55563;52.416;13.548;2023-03-04T05:38:21;8.15;;;1.70;;
68593;SDS011;55563;52.416;13.548;2023-03-04T05:40:22;2.80;;;2.20;;
68593;SDS011;55563;52.416;13.548;2023-03-04T05:42:25;5.22;;;1.50;;
68593;SDS011;55563;52.416;13.548;2023-03-04T05:44:25;7.88;;;2.47;;
68593;SDS011;55563;52.416;13.548;2023-03-04T05:46:26;5.45;;;2.25;;
68593;SDS011;55563;52.416;13.548;2023-03-04T05:48:27;3.97;;;2.15;;
68593;SDS011;55563;52.416;13.548;2023-03-04T05:50:28;4.60;;;1.90;;
68593;SDS011;55563;52.416;13.548;2023-03-04T05:52:29;5.85;;;2.25;;
68593;SDS011;55563;52.416;13.548;2023-03-04T05:54:30;4.43;;;1.40;;
68593;SDS011;55563;52.416;13.548;2023-03-04T05:56:31;5.35;;;2.17;;
68593;SDS011;55563;52.416;13.548;2023-03-04T05:58:32;5.85;;;2.40;;
68593;SDS011;55563;52.416;13.548;2023-03-04T06:00:33;8.68;;;2.28;;
68593;SDS011;55563;52.416;13.548;2023-03-04T06:02:34;4.07;;;2.25;;
68593;SDS011;55563;52.416;13.548;2023-03-04T06:04:36;3.50;;;1.95;;
68593;SDS011;55563;52.416;13.548;2023-03-04T06:06:36;3.40;;;1.92;;
68593;SDS011;55563;52.416;13.548;2023-03-04T06:08:37;5.50;;;2.40;;
68593;SDS011;55563;52.416;13.548;2023-03-04T06:10:38;3.70;;;1.80;;
68593;SDS011;55563;52.416;13.548;2023-03-04T06:12:40;3.95;;;1.90;;
68593;SDS011;55563;52.416;13.548;2023-03-04T06:14:41;4.93;;;2.10;;
68593;SDS011;55563;52.416;13.548;2023-03-04T06:16:42;5.20;;;1.40;;
68593;SDS011;55563;52.416;13.548;2023-03-04T06:18:43;2.65;;;1.17;;
68593;SDS011;55563;52.416;13.548;2023-03-04T06:20:43;4.95;;;1.77;;
68593;SDS011;55563;52.416;13.548;2023-03-04T06:22:44;4.88;;;1.48;;
68593;SDS011;55563;52.416;13.548;2023-03-04T06:24:45;5.82;;;2.25;;
68593;SDS011;55563;52.416;13.548;2023-03-04T06:26:46;4.85;;;2.20;;
68593;SDS011;55563;52.416;13.548;2023-03-04T06:28:46;4.30;;;2.03;;
68593;SDS011;55563;52.416;13.548;2023-03-04T06:30:47;4.03;;;2.15;;
68593;SDS011;55563;52.416;13.548;2023-03-04T06:32:50;5.75;;;2.08;;
68593;SDS011;55563;52.416;13.548;2023-03-04T06:34:51;2.90;;;1.92;;
68593;SDS011;55563;52.416;13.548;2023-03-04T06:36:51;3.58;;;1.95;;
68593;SDS011;55563;52.416;13.548;2023-03-04T06:38:52;6.80;;;2.90;;
68593;SDS011;55563;52.416;13.548;2023-03-04T06:40:53;6.45;;;2.78;;
68593;SDS011;55563;52.416;13.548;2023-03-04T06:42:53;5.70;;;2.90;;
68593;SDS011;55563;52.416;13.548;2023-03-04T06:44:54;7.03;;;2.60;;
68593;SDS011;55563;52.416;13.548;2023-03-04T06:46:55;4.70;;;2.08;;
68593;SDS011;55563;52.416;13.548;2023-03-04T06:48:56;5.60;;;2.28;;
68593;SDS011;55563;52.416;13.548;2023-03-04T06:50:56;3.85;;;1.85;;
68593;SDS011;55563;52.416;13.548;2023-03-04T06:52:57;4.88;;;2.17;;
68593;SDS011;55563;52.416;13.548;2023-03-04T06:54:57;3.70;;;2.22;;
68593;SDS011;55563;52.416;13.548;2023-03-04T06:56:58;4.07;;;1.88;;
68593;SDS011;55563;52.416;13.548;2023-03-04T06:58:59;3.58;;;1.83;;
68593;SDS011;55563;52.416;13.548;2023-03-04T07:01:32;4.03;;;1.92;;
68593;SDS011;55563;52.416;13.548;2023-03-04T07:03:22;5.70;;;2.53;;
68593;SDS011;55563;52.416;13.548;2023-03-04T07:05:23;4.82;;;1.50;;
68593;SDS011;55563;52.416;13.548;2023-03-04T07:07:23;3.90;;;1.90;;
68593;SDS011;55563;52.416;13.548;2023-03-04T07:09:25;4.70;;;1.70;;
68593;SDS011;55563;52.416;13.548;2023-03-04T07:11:26;3.88;;;2.03;;
68593;SDS011;55563;52.416;13.548;2023-03-04T07:13:26;2.83;;;1.77;;
68593;SDS011;55563;52.416;13.548;2023-03-04T07:15:27;4.75;;;2.10;;
68593;SDS011;55563;52.416;13.548;2023-03-04T07:17:28;5.60;;;2.45;;
68593;SDS011;55563;52.416;13.548;2023-03-04T07:19:29;3.95;;;2.47;;
68593;SDS011;55563;52.416;13.548;2023-03-04T07:21:29;6.78;;;2.40;;
68593;SDS011;55563;52.416;13.548;2023-03-04T07:23:30;4.20;;;2.50;;
68593;SDS011;55563;52.416;13.548;2023-03-04T07:25:31;4.28;;;2.30;;
68593;SDS011;55563;52.416;13.548;2023-03-04T07:27:31;5.20;;;2.20;;
68593;SDS011;55563;52.416;13.548;2023-03-04T07:29:32;4.30;;;2.00;;
68593;SDS011;55563;52.416;13.548;2023-03-04T07:31:34;2.33;;;1.90;;
68593;SDS011;55563;52.416;13.548;2023-03-04T07:33:36;4.20;;;2.15;;
68593;SDS011;55563;52.416;13.548;2023-03-04T07:35:37;4.40;;;2.10;;
68593;SDS011;55563;52.416;13.548;2023-03-04T07:37:37;4.60;;;2.17;;
68593;SDS011;55563;52.416;13.548;2023-03-04T07:39:39;5.38;;;1.95;;
68593;SDS011;55563;52.416;13.548;2023-03-04T07:41:40;2.38;;;1.80;;
68593;SDS011;55563;52.416;13.548;2023-03-04T07:43:41;4.50;;;2.25;;
68593;SDS011;55563;52.416;13.548;2023-03-04T07:45:42;4.18;;;1.75;;
68593;SDS011;55563;52.416;13.548;2023-03-04T07:47:42;2.83;;;1.30;;
68593;SDS011;55563;52.416;13.548;2023-03-04T07:49:43;4.32;;;2.30;;
68593;SDS011;55563;52.416;13.548;2023-03-04T07:51:44;1.88;;;1.02;;
68593;SDS011;55563;52.416;13.548;2023-03-04T07:53:46;4.88;;;2.00;;
68593;SDS011;55563;52.416;13.548;2023-03-04T07:55:48;4.38;;;2.30;;
68593;SDS011;55563;52.416;13.548;2023-03-04T07:57:49;3.08;;;1.85;;
68593;SDS011;55563;52.416;13.548;2023-03-04T07:59:49;3.30;;;1.98;;
68593;SDS011;55563;52.416;13.548;2023-03-04T08:01:50;2.70;;;1.80;;
68593;SDS011;55563;52.416;13.548;2023-03-04T08:03:51;3.47;;;2.05;;
68593;SDS011;55563;52.416;13.548;2023-03-04T08:05:52;2.83;;;1.80;;
68593;SDS011;55563;52.416;13.548;2023-03-04T08:07:53;2.53;;;1.98;;
68593;SDS011;55563;52.416;13.548;2023-03-04T08:09:57;5.13;;;3.22;;
68593;SDS011;55563;52.416;13.548;2023-03-04T08:11:57;3.60;;;2.08;;
68593;SDS011;55563;52.416;13.548;2023-03-04T08:13:58;3.47;;;2.10;;
68593;SDS011;55563;52.416;13.548;2023-03-04T08:15:59;3.85;;;1.90;;
68593;SDS011;55563;52.416;13.548;2023-03-04T08:18:00;3.45;;;2.03;;
68593;SDS011;55563;52.416;13.548;2023-03-04T08:20:01;2.95;;;1.88;;
68593;SDS011;55563;52.416;13.548;2023-03-04T08:22:02;3.53;;;1.85;;
68593;SDS011;55563;52.416;13.548;2023-03-04T08:24:04;3.60;;;2.08;;
68593;SDS011;55563;52.416;13.548;2023-03-04T08:26:09;1.98;;;1.83;;
68593;SDS011;55563;52.416;13.548;2023-03-04T08:28:13;3.40;;;1.90;;
68593;SDS011;55563;52.416;13.548;2023-03-04T08:30:14;2.15;;;1.90;;
68593;SDS011;55563;52.416;13.548;2023-03-04T08:32:16;3.72;;;2.05;;
68593;SDS011;55563;52.416;13.548;2023-03-04T08:34:17;4.10;;;1.92;;
68593;SDS011;55563;52.416;13.548;2023-03-04T08:36:19;3.10;;;2.00;;
68593;SDS011;55563;52.416;13.548;2023-03-04T08:38:20;2.60;;;1.70;;
68593;SDS011;55563;52.416;13.548;2023-03-04T08:40:21;3.08;;;2.17;;
68593;SDS011;55563;52.416;13.548;2023-03-04T08:42:22;3.22;;;2.13;;
68593;SDS011;55563;52.416;13.548;2023-03-04T08:44:23;4.25;;;2.03;;
68593;SDS011;55563;52.416;13.548;2023-03-04T08:46:24;5.22;;;1.92;;
68593;SDS011;55563;52.416;13.548;2023-03-04T08:48:25;3.38;;;2.10;;
68593;SDS011;55563;52.416;13.548;2023-03-04T08:50:25;2.40;;;1.55;;
68593;SDS011;55563;52.416;13.548;2023-03-04T08:52:27;2.88;;;2.17;;
68593;SDS011;55563;52.416;13.548;2023-03-04T08:54:29;4.10;;;2.30;;
68593;SDS011;55563;52.416;13.548;2023-03-04T08:56:30;2.97;;;2.13;;
68593;SDS011;55563;52.416;13.548;2023-03-04T08:58:31;3.38;;;2.42;;
68593;SDS011;55563;52.416;13.548;2023-03-04T09:00:35;3.88;;;2.20;;
68593;SDS011;55563;52.416;13.548;2023-03-04T09:02:37;4.90;;;2.17;;
68593;SDS011;55563;52.416;13.548;2023-03-04T09:04:37;2.90;;;1.75;;
68593;SDS011;55563;52.416;13.548;2023-03-04T09:06:38;3.95;;;2.03;;
68593;SDS011;55563;52.416;13.548;2023-03-04T09:08:39;2.03;;;1.45;;
68593;SDS011;55563;52.416;13.548;2023-03-04T09:10:40;4.88;;;2.00;;
68593;SDS011;55563;52.416;13.548;2023-03-04T09:12:41;4.32;;;2.33;;
68593;SDS011;55563;52.416;13.548;2023-03-04T09:16:43;4.43;;;1.83;;
68593;SDS011;55563;52.416;13.548;2023-03-04T09:18:44;1.92;;;1.65;;
68593;SDS011;55563;52.416;13.548;2023-03-04T09:20:45;3.28;;;1.88;;
68593;SDS011;55563;52.416;13.548;2023-03-04T09:22:46;3.95;;;1.70;;
68593;SDS011;55563;52.416;13.548;2023-03-04T09:24:47;2.13;;;1.65;;
68593;SDS011;55563;52.416;13.548;2023-03-04T09:26:49;2.40;;;1.58;;
68593;SDS011;55563;52.416;13.548;2023-03-04T09:28:51;2.85;;;1.88;;
68593;SDS011;55563;52.416;13.548;2023-03-04T09:30:52;3.35;;;1.50;;
68593;SDS011;55563;52.416;13.548;2023-03-04T09:32:53;1.40;;;0.82;;
68593;SDS011;55563;52.416;13.548;2023-03-04T09:34:54;2.28;;;1.70;;
68593;SDS011;55563;52.416;13.548;2023-03-04T09:36:54;2.83;;;1.45;;
68593;SDS011;55563;52.416;13.548;2023-03-04T09:38:58;4.13;;;1.73;;
68593;SDS011;55563;52.416;13.548;2023-03-04T09:41:01;3.65;;;1.25;;
68593;SDS011;55563;52.416;13.548;2023-03-04T09:43:05;1.48;;;1.38;;
68593;SDS011;55563;52.416;13.548;2023-03-04T09:45:16;2.55;;;1.88;;
68593;SDS011;55563;52.416;13.548;2023-03-04T09:47:19;6.22;;;1.85;;
68593;SDS011;55563;52.416;13.548;2023-03-04T09:49:22;2.25;;;1.77;;
68593;SDS011;55563;52.416;13.548;2023-03-04T09:54:07;4.03;;;2.05;;
68593;SDS011;55563;52.416;13.548;2023-03-04T09:56:10;3.58;;;1.80;;
68593;SDS011;55563;52.416;13.548;2023-03-04T10:00:42;2.20;;;1.10;;
68593;SDS011;55563;52.416;13.548;2023-03-04T10:05:14;2.28;;;1.75;;
68593;SDS011;55563;52.416;13.548;2023-03-04T10:07:20;2.33;;;1.10;;
68593;SDS011;55563;52.416;13.548;2023-03-04T10:09:27;3.85;;;2.20;;
68593;SDS011;55563;52.416;13.548;2023-03-04T10:11:45;4.25;;;1.25;;
68593;SDS011;55563;52.416;13.548;2023-03-04T10:16:20;4.25;;;1.75;;
68593;SDS011;55563;52.416;13.548;2023-03-04T10:18:26;1.80;;;1.70;;
68593;SDS011;55563;52.416;13.548;2023-03-04T10:23:04;5.60;;;1.85;;
68593;SDS011;55563;52.416;13.548;2023-03-04T10:25:20;3.33;;;2.10;;
68593;SDS011;55563;52.416;13.548;2023-03-04T10:27:26;3.35;;;2.35;;
68593;SDS011;55563;52.416;13.548;2023-03-04T10:29:29;4.35;;;2.33;;
68593;SDS011;55563;52.416;13.548;2023-03-04T10:31:33;3.08;;;1.50;;
68593;SDS011;55563;52.416;13.548;2023-03-04T10:33:37;2.72;;;1.55;;
68593;SDS011;55563;52.416;13.548;2023-03-04T10:35:39;6.53;;;1.95;;
68593;SDS011;55563;52.416;13.548;2023-03-04T10:37:45;2.08;;;1.33;;
68593;SDS011;55563;52.416;13.548;2023-03-04T10:39:49;3.95;;;2.00;;
68593;SDS011;55563;52.416;13.548;2023-03-04T10:41:54;5.53;;;2.08;;
68593;SDS011;55563;52.416;13.548;2023-03-04T10:44:15;5.25;;;1.85;;
68593;SDS011;55563;52.416;13.548;2023-03-04T10:46:17;3.67;;;1.25;;
68593;SDS011;55563;52.416;13.548;2023-03-04T10:48:22;2.35;;;1.85;;
68593;SDS011;55563;52.416;13.548;2023-03-04T10:50:26;4.10;;;1.77;;
68593;SDS011;55563;52.416;13.548;2023-03-04T10:52:31;3.22;;;1.67;;
68593;SDS011;55563;52.416;13.548;2023-03-04T10:54:39;3.95;;;1.20;;
68593;SDS011;55563;52.416;13.548;2023-03-04T10:57:01;4.97;;;2.08;;
68593;SDS011;55563;52.416;13.548;2023-03-04T10:59:38;3.83;;;1.85;;
68593;SDS011;55563;52.416;13.548;2023-03-04T11:01:42;3.95;;;1.88;;
68593;SDS011;55563;52.416;13.548;2023-03-04T11:03:45;2.00;;;0.95;;
68593;SDS011;55563;52.416;13.548;2023-03-04T11:05:48;2.75;;;1.58;;
68593;SDS011;55563;52.416;13.548;2023-03-04T11:07:50;4.35;;;2.08;;
68593;SDS011;55563;52.416;13.548;2023-03-04T11:09:53;4.72;;;2.03;;
68593;SDS011;55563;52.416;13.548;2023-03-04T11:11:54;2.75;;;1.52;;
68593;SDS011;55563;52.416;13.548;2023-03-04T11:14:00;4.60;;;1.98;;
68593;SDS011;55563;52.416;13.548;2023-03-04T11:16:22;3.22;;;1.85;;
68593;SDS011;55563;52.416;13.548;2023-03-04T11:18:58;4.60;;;1.23;;
68593;SDS011;55563;52.416;13.548;2023-03-04T11:20:48;4.40;;;1.92;;
68593;SDS011;55563;52.416;13.548;2023-03-04T11:22:50;3.75;;;1.60;;
68593;SDS011;55563;52.416;13.548;2023-03-04T11:24:54;4.22;;;1.90;;
68593;SDS011;55563;52.416;13.548;2023-03-04T11:27:05;5.35;;;2.15;;
68593;SDS011;55563;52.416;13.548;2023-03-04T11:29:17;5.72;;;2.25;;
68593;SDS011;55563;52.416;13.548;2023-03-04T11:31:41;6.55;;;1.90;;
68593;SDS011;55563;52.416;13.548;2023-03-04T11:34:13;3.00;;;2.03;;
68593;SDS011;55563;52.416;13.548;2023-03-04T11:36:36;11.80;;;2.38;;
68593;SDS011;55563;52.416;13.548;2023-03-04T11:38:46;8.80;;;2.40;;
68593;SDS011;55563;52.416;13.548;2023-03-04T11:40:53;4.50;;;2.13;;
68593;SDS011;55563;52.416;13.548;2023-03-04T11:43:03;3.28;;;1.95;;
68593;SDS011;55563;52.416;13.548;2023-03-04T11:45:16;4.43;;;2.17;;
68593;SDS011;55563;52.416;13.548;2023-03-04T11:52:23;3.65;;;2.20;;
68593;SDS011;55563;52.416;13.548;2023-03-04T11:56:52;6.18;;;1.50;;
68593;SDS011;55563;52.416;13.548;2023-03-04T11:59:10;6.85;;;1.50;;
68593;SDS011;55563;52.416;13.548;2023-03-04T12:01:41;6.85;;;1.70;;
68593;SDS011;55563;52.416;13.548;2023-03-04T12:08:50;4.80;;;1.45;;
68593;SDS011;55563;52.416;13.548;2023-03-04T12:11:17;2.60;;;1.10;;
68593;SDS011;55563;52.416;13.548;2023-03-04T12:18:44;4.65;;;1.45;;
68593;SDS011;55563;52.416;13.548;2023-03-04T12:21:11;5.00;;;1.40;;
68593;SDS011;55563;52.416;13.548;2023-03-04T12:23:41;12.43;;;4.75;;
68593;SDS011;55563;52.416;13.548;2023-03-04T12:26:11;28.20;;;12.65;;
68593;SDS011;55563;52.416;13.548;2023-03-04T12:31:02;11.57;;;3.78;;
68593;SDS011;55563;52.416;13.548;2023-03-04T12:38:53;12.18;;;5.43;;
68593;SDS011;55563;52.416;13.548;2023-03-04T12:43:55;6.20;;;2.00;;
68593;SDS011;55563;52.416;13.548;2023-03-04T12:46:35;5.97;;;2.20;;
68593;SDS011;55563;52.416;13.548;2023-03-04T12:48:47;9.75;;;3.75;;
68593;SDS011;55563;52.416;13.548;2023-03-04T12:51:11;7.13;;;2.95;;
68593;SDS011;55563;52.416;13.548;2023-03-04T12:53:29;8.25;;;3.80;;
68593;SDS011;55563;52.416;13.548;2023-03-04T12:55:50;7.15;;;2.65;;
68593;SDS011;55563;52.416;13.548;2023-03-04T12:57:55;5.78;;;2.33;;